createdAt,value
2023-05-09T00:00:06.178Z,1100.23
2023-05-09T00:01:06.132Z,1101.52
2023-05-09T00:02:06.229Z,1102.65
2023-05-09T00:03:06.252Z,1101.04
2023-05-09T00:04:09.139Z,1100.66
2023-05-09T00:05:09.089Z,1101.46
2023-05-09T00:06:06.065Z,1101.46
2023-05-09T00:07:06.052Z,1102.73
2023-05-09T00:08:06.057Z,1102.73
2023-05-09T00:09:06.050Z,1102.73
2023-05-09T00:10:06.009Z,1101.46
2023-05-09T00:11:06.036Z,1101.46
2023-05-09T00:12:06.008Z,1102.73
2023-05-09T00:13:06.221Z,1101.46
2023-05-09T00:14:05.956Z,1101.46
2023-05-09T00:15:05.969Z,1102.73
2023-05-09T00:16:05.999Z,1101.46
2023-05-09T00:17:05.927Z,1101.46
2023-05-09T00:18:05.932Z,1101.46
2023-05-09T00:19:05.909Z,1101.46
2023-05-09T00:20:05.882Z,1102.73
2023-05-09T00:21:05.893Z,1102.73
2023-05-09T00:22:05.862Z,1101.46
2023-05-09T00:23:05.835Z,1101.46
2023-05-09T00:24:08.852Z,1101.46
2023-05-09T00:25:08.856Z,1101.46
2023-05-09T00:26:05.788Z,1101.46
2023-05-09T00:27:05.801Z,1101.46
2023-05-09T00:28:05.761Z,1101.46
2023-05-09T00:29:05.761Z,1101.46
2023-05-09T00:30:05.789Z,1101.46
2023-05-09T00:31:05.750Z,1101.46
2023-05-09T00:32:05.814Z,1101.46
2023-05-09T00:33:05.718Z,1101.46
2023-05-09T00:34:05.686Z,1101.46
2023-05-09T00:35:05.664Z,1101.46
2023-05-09T00:36:05.706Z,1101.46
2023-05-09T00:37:05.653Z,1101.46
2023-05-09T00:38:05.620Z,1101.46
2023-05-09T00:39:05.629Z,1101.46
2023-05-09T00:40:05.696Z,1101.46
2023-05-09T00:41:05.580Z,1101.46
2023-05-09T00:42:05.592Z,1101.46
2023-05-09T00:43:05.577Z,1101.46
2023-05-09T00:44:08.588Z,1101.46
2023-05-09T00:45:08.535Z,1101.46
2023-05-09T00:46:05.621Z,1101.46
2023-05-09T00:47:05.523Z,1101.46
2023-05-09T00:48:05.532Z,1101.46
2023-05-09T00:49:05.525Z,1101.46
2023-05-09T00:50:05.481Z,1101.46
2023-05-09T00:51:05.501Z,1101.46
2023-05-09T00:52:05.542Z,1101.46
2023-05-09T00:53:05.454Z,1101.46
2023-05-09T00:54:07.619Z,1101.46
2023-05-09T00:55:05.438Z,1101.46
2023-05-09T00:56:05.392Z,1101.46
2023-05-09T00:57:05.440Z,1101.46
2023-05-09T00:58:05.362Z,1101.46
2023-05-09T00:59:05.361Z,1101.46
2023-05-09T01:00:05.336Z,1101.46
2023-05-09T01:01:05.449Z,1101.46
2023-05-09T01:02:05.380Z,1101.46
2023-05-09T01:03:05.360Z,1101.46
2023-05-09T01:04:08.300Z,1101.46
2023-05-09T01:05:08.306Z,1101.46
2023-05-09T01:06:05.250Z,1101.46
2023-05-09T01:07:05.235Z,1101.46
2023-05-09T01:08:05.229Z,1101.46
2023-05-09T01:09:05.218Z,1101.46
2023-05-09T01:10:05.199Z,1101.46
2023-05-09T01:11:05.176Z,1101.46
2023-05-09T01:12:05.177Z,1101.46
2023-05-09T01:13:05.206Z,1101.46
2023-05-09T01:14:05.176Z,1101.46
2023-05-09T01:15:05.122Z,1101.46
2023-05-09T01:16:05.149Z,1101.46
2023-05-09T01:17:05.087Z,1101.46
2023-05-09T01:18:05.140Z,1101.46
2023-05-09T01:19:05.070Z,1101.46
2023-05-09T01:20:05.053Z,1101.46
2023-05-09T01:21:05.064Z,1101.46
2023-05-09T01:22:05.031Z,1101.46
2023-05-09T01:23:05.001Z,1101.46
2023-05-09T01:24:08.000Z,1101.46
2023-05-09T01:25:08.001Z,1101.46
2023-05-09T01:26:04.970Z,1101.46
2023-05-09T01:27:04.954Z,1101.46
2023-05-09T01:28:04.964Z,1101.46
2023-05-09T01:29:04.936Z,1101.46
2023-05-09T01:30:04.952Z,1101.46
2023-05-09T01:31:04.924Z,1101.46
2023-05-09T01:32:04.891Z,1101.46
2023-05-09T01:33:04.957Z,1101.46
2023-05-09T01:34:04.910Z,1101.46
2023-05-09T01:35:04.840Z,1101.46
2023-05-09T01:36:04.826Z,1101.46
2023-05-09T01:37:04.822Z,1101.46
2023-05-09T01:38:04.801Z,1101.46
2023-05-09T01:39:04.790Z,1101.46
2023-05-09T01:40:04.804Z,1101.46
2023-05-09T01:41:04.785Z,1101.46
2023-05-09T01:42:04.752Z,1101.46
2023-05-09T01:43:04.751Z,1101.46
2023-05-09T01:44:07.755Z,1101.46
2023-05-09T01:45:07.756Z,1101.46
2023-05-09T01:46:04.694Z,1101.46
2023-05-09T01:47:04.682Z,1101.46
2023-05-09T01:48:04.698Z,1101.46
2023-05-09T01:49:04.662Z,1101.46
2023-05-09T01:50:04.667Z,1101.46
2023-05-09T01:51:04.647Z,1101.46
2023-05-09T01:52:04.617Z,1101.46
2023-05-09T01:53:04.592Z,1101.46
2023-05-09T01:54:04.582Z,1101.46
2023-05-09T01:55:04.617Z,1101.46
2023-05-09T01:56:04.556Z,1101.46
2023-05-09T01:57:04.598Z,1101.46
2023-05-09T01:58:04.558Z,1101.46
2023-05-09T01:59:04.522Z,1101.46
2023-05-09T02:00:04.509Z,1101.46
2023-05-09T02:01:04.521Z,1101.46
2023-05-09T02:02:04.531Z,1101.46
2023-05-09T02:03:04.532Z,1101.46
2023-05-09T02:04:07.448Z,1101.46
2023-05-09T02:05:07.445Z,1101.46
2023-05-09T02:06:04.410Z,1101.46
2023-05-09T02:07:04.474Z,1101.46
2023-05-09T02:08:04.381Z,1101.46
2023-05-09T02:09:04.396Z,1101.46
2023-05-09T02:10:04.366Z,1101.46
2023-05-09T02:11:04.347Z,1101.46
2023-05-09T02:12:04.351Z,1101.46
2023-05-09T02:13:04.366Z,1101.46
2023-05-09T02:14:04.306Z,1101.46
2023-05-09T02:15:04.307Z,1101.46
2023-05-09T02:16:04.277Z,1101.46
2023-05-09T02:17:04.312Z,1101.46
2023-05-09T02:18:04.320Z,1101.46
2023-05-09T02:19:04.252Z,1101.46
2023-05-09T02:20:04.216Z,1101.46
2023-05-09T02:21:04.246Z,1101.46
2023-05-09T02:22:04.199Z,1101.46
2023-05-09T02:23:04.187Z,1101.46
2023-05-09T02:24:07.191Z,1101.46
2023-05-09T02:25:07.158Z,1101.46
2023-05-09T02:26:04.132Z,1101.46
2023-05-09T02:27:04.128Z,1101.46
2023-05-09T02:28:04.143Z,1101.46
2023-05-09T02:29:04.114Z,1101.46
2023-05-09T02:30:04.070Z,1101.46
2023-05-09T02:31:04.067Z,1101.46
2023-05-09T02:32:04.144Z,1101.46
2023-05-09T02:33:04.118Z,1101.46
2023-05-09T02:34:04.069Z,1101.46
2023-05-09T02:35:04.053Z,1101.46
2023-05-09T02:36:03.994Z,1101.46
2023-05-09T02:37:03.978Z,1101.46
2023-05-09T02:38:03.981Z,1101.46
2023-05-09T02:39:04.021Z,1101.46
2023-05-09T02:40:03.938Z,1101.46
2023-05-09T02:41:03.934Z,1101.46
2023-05-09T02:42:03.918Z,1101.46
2023-05-09T02:43:03.900Z,1101.46
2023-05-09T02:44:06.962Z,1101.46
2023-05-09T02:45:06.872Z,1101.46
2023-05-09T02:46:03.881Z,1101.46
2023-05-09T02:47:03.853Z,1101.46
2023-05-09T02:48:05.666Z,1101.46
2023-05-09T02:49:03.821Z,1101.46
2023-05-09T02:50:03.870Z,1101.46
2023-05-09T02:51:03.780Z,1101.46
2023-05-09T02:52:03.786Z,1101.46
2023-05-09T02:53:03.767Z,1101.46
2023-05-09T02:54:03.744Z,1101.46
2023-05-09T02:55:03.726Z,1101.46
2023-05-09T02:56:03.760Z,1101.46
2023-05-09T02:57:03.689Z,1101.46
2023-05-09T02:58:13.517Z,1101.46
2023-05-09T02:59:04.661Z,1101.46
2023-05-09T03:00:03.670Z,1101.46
2023-05-09T03:01:03.708Z,1101.46
2023-05-09T03:02:03.617Z,1101.46
2023-05-09T03:03:03.671Z,1101.46
2023-05-09T03:04:06.612Z,1101.46
2023-05-09T03:05:06.616Z,1101.46
2023-05-09T03:06:03.614Z,1101.46
2023-05-09T03:07:03.574Z,1101.46
2023-05-09T03:08:03.558Z,1101.46
2023-05-09T03:09:03.627Z,1101.46
2023-05-09T03:10:03.538Z,1101.46
2023-05-09T03:11:03.491Z,1101.46
2023-05-09T03:12:03.523Z,1101.46
2023-05-09T03:13:03.509Z,1101.46
2023-05-09T03:14:03.491Z,1101.46
2023-05-09T03:15:03.436Z,1101.46
2023-05-09T03:16:03.511Z,1101.46
2023-05-09T03:17:03.412Z,1101.46
2023-05-09T03:18:03.488Z,1101.46
2023-05-09T03:19:03.370Z,1101.46
2023-05-09T03:20:04.416Z,1101.46
2023-05-09T03:21:03.386Z,1101.46
2023-05-09T03:22:03.339Z,1101.46
2023-05-09T03:23:03.325Z,1101.46
2023-05-09T03:24:06.451Z,1101.46
2023-05-09T03:25:06.319Z,1101.46
2023-05-09T03:26:03.325Z,1101.46
2023-05-09T03:27:03.327Z,1101.46
2023-05-09T03:28:03.245Z,1101.46
2023-05-09T03:29:03.229Z,1101.46
2023-05-09T03:30:03.251Z,1101.46
2023-05-09T03:31:03.240Z,1101.46
2023-05-09T03:32:03.207Z,1101.46
2023-05-09T03:33:03.209Z,1101.46
2023-05-09T03:34:03.186Z,1101.46
2023-05-09T03:35:03.145Z,1101.46
2023-05-09T03:36:03.139Z,1101.46
2023-05-09T03:37:03.137Z,1101.46
2023-05-09T03:38:03.147Z,1101.46
2023-05-09T03:39:03.101Z,1101.46
2023-05-09T03:40:03.138Z,1101.46
2023-05-09T03:41:03.061Z,1101.46
2023-05-09T03:42:03.043Z,1101.46
2023-05-09T03:43:03.042Z,1101.46
2023-05-09T03:44:06.014Z,1101.46
2023-05-09T03:45:06.052Z,1101.46
2023-05-09T03:46:02.982Z,1101.46
2023-05-09T03:47:03.111Z,1101.46
2023-05-09T03:48:03.066Z,1101.46
2023-05-09T03:49:02.978Z,1101.46
2023-05-09T03:50:02.931Z,1101.46
2023-05-09T03:51:02.934Z,1101.46
2023-05-09T03:52:02.910Z,1101.46
2023-05-09T03:53:02.881Z,1101.46
2023-05-09T03:54:02.877Z,1101.46
2023-05-09T03:55:02.909Z,1101.46
2023-05-09T03:56:02.876Z,1101.46
2023-05-09T03:57:02.858Z,1101.46
2023-05-09T03:58:02.821Z,1101.46
2023-05-09T03:59:02.795Z,1101.46
2023-05-09T04:00:02.807Z,1101.46
2023-05-09T04:01:02.803Z,1101.46
2023-05-09T04:02:02.827Z,1101.46
2023-05-09T04:03:02.841Z,1101.46
2023-05-09T04:04:05.772Z,1101.46
2023-05-09T04:05:05.737Z,1101.46
2023-05-09T04:06:02.721Z,1101.46
2023-05-09T04:07:02.684Z,1101.46
2023-05-09T04:08:02.695Z,1101.46
2023-05-09T04:09:02.668Z,1101.46
2023-05-09T04:10:02.653Z,1101.46
2023-05-09T04:11:02.651Z,1101.46
2023-05-09T04:12:02.648Z,1101.46
2023-05-09T04:13:02.684Z,1101.46
2023-05-09T04:14:02.597Z,1101.46
2023-05-09T04:15:02.582Z,1101.46
2023-05-09T04:16:02.558Z,1101.46
2023-05-09T04:17:02.762Z,1101.46
2023-05-09T04:18:02.594Z,1101.46
2023-05-09T04:19:02.515Z,1101.46
2023-05-09T04:20:02.515Z,1101.46
2023-05-09T04:21:02.497Z,1101.46
2023-05-09T04:22:02.476Z,1101.46
2023-05-09T04:23:02.493Z,1101.46
2023-05-09T04:24:05.463Z,1102.73
2023-05-09T04:25:05.419Z,1102.73
2023-05-09T04:26:02.414Z,1102.73
2023-05-09T04:27:02.419Z,1102.73
2023-05-09T04:28:02.458Z,1102.73
2023-05-09T04:29:02.370Z,1102.73
2023-05-09T04:30:02.388Z,1102.73
2023-05-09T04:31:02.443Z,1102.73
2023-05-09T04:32:02.525Z,1102.73
2023-05-09T04:33:02.455Z,1101.46
2023-05-09T04:34:02.302Z,1101.46
2023-05-09T04:35:02.308Z,1102.73
2023-05-09T04:36:02.308Z,1102.73
2023-05-09T04:37:02.258Z,1098.83
2023-05-09T04:38:02.248Z,1091.83
2023-05-09T04:39:02.265Z,1080.40
2023-05-09T04:40:02.231Z,1066.69
2023-05-09T04:41:02.222Z,1093.47
2023-05-09T04:42:02.203Z,1098.13
2023-05-09T04:43:02.218Z,1089.18
2023-05-09T04:44:05.181Z,1047.35
2023-05-09T04:45:05.180Z,1017.97
2023-05-09T04:46:02.195Z,986.27
2023-05-09T04:47:02.151Z,957.35
2023-05-09T04:48:02.150Z,908.84
2023-05-09T04:49:02.101Z,878.19
2023-05-09T04:50:02.112Z,806.24
2023-05-09T04:51:02.096Z,753.35
2023-05-09T04:52:02.055Z,715.62
2023-05-09T04:53:02.041Z,736.99
2023-05-09T04:54:02.061Z,739.51
2023-05-09T04:55:02.012Z,773.49
2023-05-09T04:56:02.050Z,739.51
2023-05-09T04:57:13.688Z,718.14
2023-05-09T04:58:03.094Z,695.52
2023-05-09T04:59:01.959Z,685.48
2023-05-09T05:00:01.966Z,698.04
2023-05-09T05:01:01.937Z,711.85
2023-05-09T05:02:02.068Z,696.78
2023-05-09T05:03:01.941Z,674.19
2023-05-09T05:04:04.901Z,684.23
2023-05-09T05:05:11.483Z,680.46
2023-05-09T05:06:02.901Z,657.88
2023-05-09T05:07:01.858Z,644.09
2023-05-09T05:08:01.861Z,706.83
2023-05-09T05:09:01.833Z,773.49
2023-05-09T05:10:01.806Z,807.50
2023-05-09T05:11:01.796Z,750.83
2023-05-09T05:12:03.713Z,677.95
2023-05-09T05:13:01.793Z,617.78
2023-05-09T05:14:01.779Z,622.79
2023-05-09T05:15:01.740Z,583.99
2023-05-09T05:16:01.779Z,625.29
2023-05-09T05:17:01.714Z,642.83
2023-05-09T05:18:01.733Z,614.02
2023-05-09T05:19:01.740Z,627.80
2023-05-09T05:20:01.661Z,597.75
2023-05-09T05:21:01.643Z,596.50
2023-05-09T05:22:01.639Z,562.79
2023-05-09T05:23:01.626Z,580.23
2023-05-09T05:24:04.628Z,641.58
2023-05-09T05:25:04.607Z,606.51
2023-05-09T05:26:01.614Z,585.24
2023-05-09T05:27:01.561Z,587.74
2023-05-09T05:28:01.556Z,562.88
2023-05-09T05:29:01.539Z,534.69
2023-05-09T05:30:01.564Z,546.87
2023-05-09T05:31:01.519Z,547.18
2023-05-09T05:32:01.553Z,582.73
2023-05-09T05:33:01.550Z,545.63
2023-05-09T05:34:01.494Z,522.26
2023-05-09T05:35:01.454Z,515.49
2023-05-09T05:36:01.473Z,536.29
2023-05-09T05:37:01.436Z,542.55
2023-05-09T05:38:01.416Z,597.75
2023-05-09T05:39:01.438Z,583.99
2023-05-09T05:40:01.406Z,619.03
2023-05-09T05:41:01.372Z,691.76
2023-05-09T05:42:01.374Z,649.10
2023-05-09T05:43:01.353Z,635.31
2023-05-09T05:44:04.387Z,642.83
2023-05-09T05:45:04.346Z,642.83
2023-05-09T05:46:01.385Z,656.62
2023-05-09T05:47:01.291Z,701.80
2023-05-09T05:48:01.319Z,726.93
2023-05-09T05:49:01.260Z,767.19
2023-05-09T05:50:01.308Z,820.11
2023-05-09T05:51:01.231Z,835.25
2023-05-09T05:52:01.243Z,826.42
2023-05-09T05:53:01.230Z,806.24
2023-05-09T05:54:01.208Z,757.12
2023-05-09T05:55:01.172Z,719.39
2023-05-09T05:56:01.218Z,703.06
2023-05-09T05:57:01.155Z,700.55
2023-05-09T05:58:01.158Z,729.45
2023-05-09T05:59:01.117Z,719.39
2023-05-09T06:00:01.122Z,743.28
2023-05-09T06:01:01.120Z,695.52
2023-05-09T06:02:01.124Z,665.40
2023-05-09T06:03:01.184Z,676.70
2023-05-09T06:04:04.169Z,731.96
2023-05-09T06:05:04.042Z,798.68
2023-05-09T06:06:01.063Z,852.92
2023-05-09T06:07:01.055Z,852.92
2023-05-09T06:08:00.996Z,844.08
2023-05-09T06:09:00.984Z,832.73
2023-05-09T06:10:00.966Z,888.73
2023-05-09T06:11:00.974Z,881.98
2023-05-09T06:12:00.969Z,873.13
2023-05-09T06:13:00.996Z,863.03
2023-05-09T06:14:00.950Z,850.40
2023-05-09T06:15:00.891Z,830.20
2023-05-09T06:16:15.201Z,803.72
2023-05-09T06:17:01.985Z,807.50
2023-05-09T06:18:00.905Z,822.63
2023-05-09T06:19:00.860Z,863.03
2023-05-09T06:20:00.822Z,894.59
2023-05-09T06:21:00.812Z,918.67
2023-05-09T06:22:00.810Z,944.52
2023-05-09T06:23:00.857Z,935.25
2023-05-09T06:24:11.836Z,974.98
2023-05-09T06:25:04.775Z,976.18
2023-05-09T06:26:00.733Z,937.69
2023-05-09T06:27:00.725Z,932.23
2023-05-09T06:28:00.730Z,919.55
2023-05-09T06:29:00.794Z,937.40
2023-05-09T06:30:02.784Z,961.13
2023-05-09T06:31:01.707Z,966.31
2023-05-09T06:32:00.683Z,990.93
2023-05-09T06:33:00.680Z,966.65
2023-05-09T06:34:00.684Z,962.88
2023-05-09T06:35:00.639Z,971.51
2023-05-09T06:36:00.593Z,993.76
2023-05-09T06:37:00.644Z,999.89
2023-05-09T06:38:00.592Z,973.79
2023-05-09T06:39:00.564Z,989.42
2023-05-09T06:40:00.548Z,979.90
2023-05-09T06:41:00.541Z,954.08
2023-05-09T06:42:00.505Z,942.49
2023-05-09T06:43:00.524Z,936.88
2023-05-09T06:44:03.484Z,933.32
2023-05-09T06:45:03.525Z,948.22
2023-05-09T06:46:00.478Z,946.35
2023-05-09T06:47:00.464Z,964.28
2023-05-09T06:48:00.450Z,940.50
2023-05-09T06:49:00.420Z,951.39
2023-05-09T06:50:00.449Z,953.80
2023-05-09T06:51:00.383Z,955.22
2023-05-09T06:52:00.372Z,952.79
2023-05-09T06:53:00.360Z,922.64
2023-05-09T06:54:00.389Z,895.28
2023-05-09T06:55:00.321Z,874.40
2023-05-09T06:56:00.340Z,875.66
2023-05-09T06:57:00.300Z,864.29
2023-05-09T06:58:00.283Z,864.29
2023-05-09T06:59:00.293Z,897.73
2023-05-09T07:00:00.303Z,880.88
2023-05-09T07:01:00.243Z,920.52
2023-05-09T07:02:00.308Z,931.31
2023-05-09T07:03:00.275Z,894.68
2023-05-09T07:04:03.206Z,893.86
2023-05-09T07:05:03.266Z,889.71
2023-05-09T07:06:00.172Z,876.92
2023-05-09T07:07:00.152Z,878.19
2023-05-09T07:08:00.168Z,859.24
2023-05-09T07:09:00.145Z,846.61
2023-05-09T07:10:10.376Z,823.90
2023-05-09T07:11:01.136Z,851.66
2023-05-09T07:12:00.104Z,857.97
2023-05-09T07:13:00.166Z,850.40
2023-05-09T07:14:00.119Z,822.63
2023-05-09T07:15:00.072Z,823.90
2023-05-09T07:16:00.066Z,823.90
2023-05-09T07:17:13.768Z,854.18
2023-05-09T07:18:01.047Z,857.97
2023-05-09T07:18:59.989Z,876.92
2023-05-09T07:20:00.011Z,906.70
2023-05-09T07:20:59.992Z,916.24
2023-05-09T07:21:59.952Z,866.81
2023-05-09T07:23:00.065Z,871.87
2023-05-09T07:24:02.932Z,863.03
2023-05-09T07:25:02.913Z,866.81
2023-05-09T07:26:00.005Z,842.82
2023-05-09T07:26:59.952Z,821.37
2023-05-09T07:27:59.900Z,789.86
2023-05-09T07:28:59.862Z,783.56
2023-05-09T07:29:59.855Z,774.74
2023-05-09T07:30:59.833Z,783.56
2023-05-09T07:31:59.857Z,764.67
2023-05-09T07:32:59.917Z,758.38
2023-05-09T07:33:59.820Z,735.74
2023-05-09T07:34:59.789Z,731.96
2023-05-09T07:35:59.776Z,734.48
2023-05-09T07:36:59.761Z,745.80
2023-05-09T07:37:59.747Z,736.99
2023-05-09T07:38:59.762Z,731.96
2023-05-09T07:39:59.694Z,742.02
2023-05-09T07:40:59.711Z,736.99
2023-05-09T07:41:59.677Z,754.60
2023-05-09T07:42:59.676Z,739.51
2023-05-09T07:44:02.635Z,740.77
2023-05-09T07:45:02.669Z,747.06
2023-05-09T07:45:59.699Z,734.48
2023-05-09T07:46:59.606Z,711.85
2023-05-09T07:47:59.593Z,698.04
2023-05-09T07:48:59.590Z,685.48
2023-05-09T07:49:59.575Z,714.37
2023-05-09T07:50:59.538Z,698.04
2023-05-09T07:51:59.523Z,696.78
2023-05-09T07:52:59.512Z,672.93
2023-05-09T07:53:59.488Z,657.88
2023-05-09T07:54:59.532Z,661.64
2023-05-09T07:55:59.474Z,660.39
2023-05-09T07:56:59.461Z,656.62
2023-05-09T07:57:59.478Z,652.86
2023-05-09T07:58:59.441Z,632.81
2023-05-09T07:59:59.417Z,624.04
2023-05-09T08:00:59.427Z,631.56
2023-05-09T08:01:59.412Z,622.79
2023-05-09T08:02:59.512Z,610.26
2023-05-09T08:04:02.439Z,599.00
2023-05-09T08:05:02.359Z,610.26
2023-05-09T08:05:59.400Z,606.51
2023-05-09T08:06:59.314Z,607.76
2023-05-09T08:07:59.314Z,602.75
2023-05-09T08:08:59.321Z,614.02
2023-05-09T08:09:59.269Z,612.77
2023-05-09T08:10:59.260Z,599.00
2023-05-09T08:11:59.274Z,591.49
2023-05-09T08:12:59.261Z,582.73
2023-05-09T08:13:59.277Z,577.73
2023-05-09T08:14:59.222Z,570.23
2023-05-09T08:15:59.265Z,558.19
2023-05-09T08:16:59.188Z,573.98
2023-05-09T08:17:59.202Z,559.46
2023-05-09T08:18:59.173Z,550.89
2023-05-09T08:19:59.174Z,559.56
2023-05-09T08:20:59.124Z,555.50
2023-05-09T08:21:59.119Z,567.73
2023-05-09T08:22:59.132Z,560.75
2023-05-09T08:24:02.125Z,566.41
2023-05-09T08:25:02.161Z,560.81
2023-05-09T08:25:59.208Z,552.53
2023-05-09T08:26:59.051Z,545.17
2023-05-09T08:27:59.040Z,544.99
2023-05-09T08:28:59.018Z,549.65
2023-05-09T08:29:59.025Z,545.11
2023-05-09T08:30:59.031Z,552.26
2023-05-09T08:31:59.070Z,546.49
2023-05-09T08:32:59.010Z,531.51
2023-05-09T08:33:58.972Z,517.07
2023-05-09T08:34:58.967Z,503.59
2023-05-09T08:35:59.027Z,499.90
2023-05-09T08:36:58.922Z,501.64
2023-05-09T08:37:58.904Z,525.34
2023-05-09T08:38:58.898Z,511.75
2023-05-09T08:39:58.878Z,515.81
2023-05-09T08:40:58.852Z,503.71
2023-05-09T08:41:58.890Z,488.98
2023-05-09T08:42:58.841Z,492.51
2023-05-09T08:44:01.813Z,494.76
2023-05-09T08:45:01.832Z,486.72
2023-05-09T08:45:58.927Z,507.07
2023-05-09T08:46:58.818Z,500.35
2023-05-09T08:47:58.802Z,496.54
2023-05-09T08:48:58.757Z,477.06
2023-05-09T08:49:58.735Z,485.36
2023-05-09T08:50:58.717Z,482.82
2023-05-09T08:51:58.759Z,480.84
2023-05-09T08:52:58.701Z,468.75
2023-05-09T08:53:58.669Z,457.04
2023-05-09T08:54:58.670Z,456.63
2023-05-09T08:55:58.729Z,449.12
2023-05-09T08:56:58.693Z,456.67
2023-05-09T08:57:58.669Z,453.81
2023-05-09T08:58:58.635Z,444.36
2023-05-09T08:59:58.593Z,441.24
2023-05-09T09:00:58.599Z,444.11
2023-05-09T09:01:58.583Z,447.60
2023-05-09T09:02:58.611Z,470.56
2023-05-09T09:04:01.562Z,470.48
2023-05-09T09:05:01.704Z,466.07
2023-05-09T09:05:58.622Z,446.61
2023-05-09T09:06:58.520Z,434.77
2023-05-09T09:07:58.482Z,444.58
2023-05-09T09:08:58.533Z,439.40
2023-05-09T09:09:58.467Z,443.58
2023-05-09T09:10:58.446Z,430.69
2023-05-09T09:11:58.477Z,438.86
2023-05-09T09:12:58.449Z,432.52
2023-05-09T09:13:58.400Z,429.67
2023-05-09T09:14:58.403Z,428.93
2023-05-09T09:15:58.471Z,422.04
2023-05-09T09:16:58.440Z,422.48
2023-05-09T09:17:58.436Z,408.07
2023-05-09T09:18:58.885Z,418.64
2023-05-09T09:19:58.424Z,414.64
2023-05-09T09:20:58.292Z,408.48
2023-05-09T09:21:58.298Z,411.68
2023-05-09T09:22:58.278Z,423.22
2023-05-09T09:24:01.288Z,433.60
2023-05-09T09:25:01.380Z,452.23
2023-05-09T09:25:59.733Z,438.77
2023-05-09T09:26:58.241Z,432.27
2023-05-09T09:27:58.280Z,426.82
2023-05-09T09:28:58.221Z,415.18
2023-05-09T09:29:58.205Z,414.95
2023-05-09T09:30:58.178Z,415.73
2023-05-09T09:31:58.178Z,405.70
2023-05-09T09:32:58.156Z,394.41
2023-05-09T09:33:58.164Z,399.76
2023-05-09T09:34:58.108Z,403.20
2023-05-09T09:35:58.148Z,388.43
2023-05-09T09:36:58.080Z,396.71
2023-05-09T09:37:59.918Z,403.27
2023-05-09T09:38:58.050Z,400.32
2023-05-09T09:39:58.094Z,410.85
2023-05-09T09:40:58.058Z,415.72
2023-05-09T09:41:58.013Z,421.82
2023-05-09T09:42:58.027Z,412.09
2023-05-09T09:44:00.981Z,402.71
2023-05-09T09:45:00.978Z,401.34
2023-05-09T09:45:58.050Z,389.73
2023-05-09T09:46:57.942Z,391.71
2023-05-09T09:47:58.002Z,379.39
2023-05-09T09:48:57.996Z,375.97
2023-05-09T09:49:57.891Z,370.63
2023-05-09T09:50:57.888Z,369.66
2023-05-09T09:51:57.876Z,378.42
2023-05-09T09:52:57.872Z,376.74
2023-05-09T09:53:57.927Z,392.89
2023-05-09T09:54:57.842Z,389.24
2023-05-09T09:55:57.838Z,390.01
2023-05-09T09:56:57.832Z,383.37
2023-05-09T09:57:57.791Z,386.41
2023-05-09T09:58:57.806Z,384.05
2023-05-09T09:59:57.819Z,379.34
2023-05-09T10:00:57.758Z,379.48
2023-05-09T10:01:57.734Z,377.94
2023-05-09T10:02:57.834Z,378.84
2023-05-09T10:04:00.819Z,375.31
2023-05-09T10:05:00.764Z,368.26
2023-05-09T10:05:57.682Z,367.69
2023-05-09T10:06:57.674Z,362.02
2023-05-09T10:07:57.658Z,355.46
2023-05-09T10:08:57.656Z,352.47
2023-05-09T10:09:57.621Z,357.42
2023-05-09T10:10:57.639Z,369.21
2023-05-09T10:11:57.612Z,367.43
2023-05-09T10:12:57.664Z,359.42
2023-05-09T10:13:57.577Z,352.12
2023-05-09T10:14:57.592Z,355.06
2023-05-09T10:15:57.730Z,357.85
2023-05-09T10:16:57.939Z,353.05
2023-05-09T10:17:57.714Z,355.04
2023-05-09T10:18:57.610Z,359.51
2023-05-09T10:19:57.497Z,354.79
2023-05-09T10:20:57.495Z,358.74
2023-05-09T10:21:57.505Z,353.60
2023-05-09T10:22:57.466Z,366.74
2023-05-09T10:24:00.439Z,369.89
2023-05-09T10:25:00.468Z,372.99
2023-05-09T10:25:57.476Z,366.12
2023-05-09T10:26:57.405Z,362.32
2023-05-09T10:27:57.398Z,383.85
2023-05-09T10:28:57.381Z,374.58
2023-05-09T10:29:57.373Z,380.78
2023-05-09T10:30:57.382Z,377.48
2023-05-09T10:31:57.373Z,371.15
2023-05-09T10:32:57.374Z,367.24
2023-05-09T10:33:57.354Z,372.20
2023-05-09T10:34:57.302Z,380.32
2023-05-09T10:35:57.328Z,381.34
2023-05-09T10:36:57.303Z,377.94
2023-05-09T10:37:57.302Z,367.39
2023-05-09T10:38:57.291Z,391.33
2023-05-09T10:39:57.555Z,380.50
2023-05-09T10:40:57.708Z,366.17
2023-05-09T10:41:57.291Z,361.36
2023-05-09T10:42:57.250Z,359.29
2023-05-09T10:44:00.208Z,360.33
2023-05-09T10:45:00.271Z,356.20
2023-05-09T10:45:57.157Z,351.41
2023-05-09T10:46:57.279Z,335.31
2023-05-09T10:47:57.163Z,339.20
2023-05-09T10:48:57.121Z,344.14
2023-05-09T10:49:57.115Z,338.14
2023-05-09T10:50:57.200Z,334.11
2023-05-09T10:51:57.132Z,323.80
2023-05-09T10:52:57.063Z,323.80
2023-05-09T10:53:57.095Z,317.61
2023-05-09T10:54:57.032Z,310.18
2023-05-09T10:55:57.042Z,331.27
2023-05-09T10:56:57.008Z,316.37
2023-05-09T10:57:56.993Z,321.33
2023-05-09T10:58:57.046Z,335.86
2023-05-09T10:59:56.974Z,355.57
2023-05-09T11:00:57.408Z,344.39
2023-05-09T11:01:57.050Z,346.83
2023-05-09T11:02:56.975Z,361.05
2023-05-09T11:04:00.038Z,351.89
2023-05-09T11:04:59.898Z,347.62
2023-05-09T11:05:56.880Z,342.87
2023-05-09T11:06:57.781Z,341.97
2023-05-09T11:07:56.857Z,353.29
2023-05-09T11:08:56.846Z,370.41
2023-05-09T11:09:56.852Z,370.38
2023-05-09T11:10:56.826Z,372.25
2023-05-09T11:11:56.802Z,364.87
2023-05-09T11:12:58.080Z,362.82
2023-05-09T11:13:56.768Z,353.78
2023-05-09T11:14:56.790Z,358.78
2023-05-09T11:15:56.761Z,363.13
2023-05-09T11:16:56.748Z,367.56
2023-05-09T11:17:56.726Z,366.89
2023-05-09T11:18:56.734Z,375.47
2023-05-09T11:19:56.727Z,377.34
2023-05-09T11:20:56.740Z,377.73
2023-05-09T11:21:56.653Z,368.02
2023-05-09T11:22:56.638Z,370.13
2023-05-09T11:23:59.629Z,366.15
2023-05-09T11:24:59.639Z,357.44
2023-05-09T11:25:56.636Z,362.08
2023-05-09T11:26:56.584Z,349.81
2023-05-09T11:27:56.568Z,350.80
2023-05-09T11:28:56.553Z,354.77
2023-05-09T11:29:56.573Z,352.85
2023-05-09T11:30:56.636Z,362.06
2023-05-09T11:31:56.591Z,356.96
2023-05-09T11:32:56.577Z,350.68
2023-05-09T11:33:56.518Z,348.98
2023-05-09T11:34:56.470Z,347.68
2023-05-09T11:35:56.488Z,341.64
2023-05-09T11:36:56.448Z,332.10
2023-05-09T11:37:56.436Z,329.02
2023-05-09T11:38:56.416Z,333.72
2023-05-09T11:39:56.413Z,336.47
2023-05-09T11:40:56.410Z,333.49
2023-05-09T11:41:56.370Z,352.68
2023-05-09T11:42:58.254Z,350.63
2023-05-09T11:43:59.353Z,333.01
2023-05-09T11:44:59.345Z,322.56
2023-05-09T11:45:56.364Z,328.02
2023-05-09T11:46:56.303Z,320.09
2023-05-09T11:47:56.342Z,303.98
2023-05-09T11:48:56.265Z,306.46
2023-05-09T11:49:56.278Z,301.51
2023-05-09T11:50:56.296Z,291.60
2023-05-09T11:51:56.223Z,297.79
2023-05-09T11:52:56.226Z,305.22
2023-05-09T11:53:56.198Z,318.85
2023-05-09T11:54:56.213Z,333.58
2023-05-09T11:55:56.166Z,322.56
2023-05-09T11:56:56.208Z,322.56
2023-05-09T11:57:56.461Z,327.84
2023-05-09T11:58:56.146Z,339.83
2023-05-09T11:59:56.173Z,329.20
2023-05-09T12:00:56.123Z,335.32
2023-05-09T12:01:56.103Z,308.94
2023-05-09T12:02:56.156Z,299.03
2023-05-09T12:03:59.277Z,285.42
2023-05-09T12:04:59.051Z,279.23
2023-05-09T12:05:56.023Z,279.23
2023-05-09T12:06:56.008Z,270.57
2023-05-09T12:07:56.046Z,266.86
2023-05-09T12:08:56.026Z,261.91
2023-05-09T12:09:55.974Z,275.52
2023-05-09T12:10:55.964Z,281.70
2023-05-09T12:11:55.945Z,286.65
2023-05-09T12:12:55.983Z,290.37
2023-05-09T12:13:55.916Z,279.23
2023-05-09T12:14:55.936Z,282.94
2023-05-09T12:15:55.934Z,277.99
2023-05-09T12:16:55.894Z,269.33
2023-05-09T12:17:55.898Z,261.91
2023-05-09T12:18:55.863Z,265.62